Aviation Digital Data Service (ADDS)

Output produced by METARs form (1724 UTC 03 June 2020)
found at http://www.aviationweather.gov/metar/data/
 
METAR text: UUEE 031700Z 07003MPS 7000 OVC004 13/13 Q1008 R06R/290051 NOSIG
Conditions at: UUEE (MOSCOW/SHEREMET', RU) observed 1700 UTC 03 June 2020
Temperature: 13.0°C (55°F)
Dewpoint: 13.0°C (55°F) [RH = 100%]
Pressure (altimeter): 29.76 inches Hg (1008.0 mb)
Winds: from the ENE (70 degrees) at 7 MPH (6 knots; 3.1 m/s)
Visibility: 4 miles ( 7 km)
Ceiling: 400 feet AGL
Clouds: overcast cloud deck at 400 feet AGL
Weather: no significant weather observed at this time

METAR text: UUEE 031630Z 08005MPS 5000 BR OVC003 13/13 Q1009 R06R/290051 NOSIG
Conditions at: UUEE (MOSCOW/SHEREMET', RU) observed 1630 UTC 03 June 2020
Temperature: 13.0°C (55°F)
Dewpoint: 13.0°C (55°F) [RH = 100%]
Pressure (altimeter): 29.79 inches Hg (1009.0 mb)
Winds: from the E (80 degrees) at 12 MPH (10 knots; 5.1 m/s)
Visibility: 3 miles ( 5 km)
Ceiling: 300 feet AGL
Clouds: overcast cloud deck at 300 feet AGL
Weather: BR  (mist)

METAR text: UUEE 031600Z 08005MPS 6000 OVC003 13/13 Q1009 R06R/290051 NOSIG
Conditions at: UUEE (MOSCOW/SHEREMET', RU) observed 1600 UTC 03 June 2020
Temperature: 13.0°C (55°F)
Dewpoint: 13.0°C (55°F) [RH = 100%]
Pressure (altimeter): 29.79 inches Hg (1009.0 mb)
Winds: from the E (80 degrees) at 12 MPH (10 knots; 5.1 m/s)
Visibility: 4 miles ( 6 km)
Ceiling: 300 feet AGL
Clouds: overcast cloud deck at 300 feet AGL
Weather: no significant weather observed at this time

METAR text: UUEE 031530Z 09006MPS 9000 OVC003 13/13 Q1009 R06R/290051 NOSIG
Conditions at: UUEE (MOSCOW/SHEREMET', RU) observed 1530 UTC 03 June 2020
Temperature: 13.0°C (55°F)
Dewpoint: 13.0°C (55°F) [RH = 100%]
Pressure (altimeter): 29.79 inches Hg (1009.0 mb)
Winds: from the E (90 degrees) at 14 MPH (12 knots; 6.2 m/s)
Visibility: 6 miles ( 9 km)
Ceiling: 300 feet AGL
Clouds: overcast cloud deck at 300 feet AGL
Weather: no significant weather observed at this time

METAR text: UUEE 031500Z 09006MPS 9999 OVC004 13/13 Q1009 R06R/290051 NOSIG
Conditions at: UUEE (MOSCOW/SHEREMET', RU) observed 1500 UTC 03 June 2020
Temperature: 13.0°C (55°F)
Dewpoint: 13.0°C (55°F) [RH = 100%]
Pressure (altimeter): 29.79 inches Hg (1009.0 mb)
Winds: from the E (90 degrees) at 14 MPH (12 knots; 6.2 m/s)
Visibility: 6 or more miles (10+ km)
Ceiling: 400 feet AGL
Clouds: overcast cloud deck at 400 feet AGL
Weather: no significant weather observed at this time

METAR text: UUEE 031430Z 08004MPS 5000 -DZ OVC004 13/13 Q1009 R06R/290051 NOSIG
Conditions at: UUEE (MOSCOW/SHEREMET', RU) observed 1430 UTC 03 June 2020
Temperature: 13.0°C (55°F)
Dewpoint: 13.0°C (55°F) [RH = 100%]
Pressure (altimeter): 29.79 inches Hg (1009.0 mb)
Winds: from the E (80 degrees) at 9 MPH (8 knots; 4.1 m/s)
Visibility: 3 miles ( 5 km)
Ceiling: 400 feet AGL
Clouds: overcast cloud deck at 400 feet AGL
Weather: -DZ  (light drizzle)

METAR text: UUEE 031400Z 08005MPS 7000 -DZ OVC003 13/13 Q1009 R06R/290051 NOSIG
Conditions at: UUEE (MOSCOW/SHEREMET', RU) observed 1400 UTC 03 June 2020
Temperature: 13.0°C (55°F)
Dewpoint: 13.0°C (55°F) [RH = 100%]
Pressure (altimeter): 29.79 inches Hg (1009.0 mb)
Winds: from the E (80 degrees) at 12 MPH (10 knots; 5.1 m/s)
Visibility: 4 miles ( 7 km)
Ceiling: 300 feet AGL
Clouds: overcast cloud deck at 300 feet AGL
Weather: -DZ  (light drizzle)

METAR text: UUEE 031330Z 08006MPS 5000 -DZ OVC006 13/13 Q1009 R06R/290051 NOSIG
Conditions at: UUEE (MOSCOW/SHEREMET', RU) observed 1330 UTC 03 June 2020
Temperature: 13.0°C (55°F)
Dewpoint: 13.0°C (55°F) [RH = 100%]
Pressure (altimeter): 29.79 inches Hg (1009.0 mb)
Winds: from the E (80 degrees) at 14 MPH (12 knots; 6.2 m/s)
Visibility: 3 miles ( 5 km)
Ceiling: 600 feet AGL
Clouds: overcast cloud deck at 600 feet AGL
Weather: -DZ  (light drizzle)

METAR text: UUEE 031300Z 08006MPS 9000 OVC006 13/13 Q1009 R06R/290051 NOSIG
Conditions at: UUEE (MOSCOW/SHEREMET', RU) observed 1300 UTC 03 June 2020
Temperature: 13.0°C (55°F)
Dewpoint: 13.0°C (55°F) [RH = 100%]
Pressure (altimeter): 29.79 inches Hg (1009.0 mb)
Winds: from the E (80 degrees) at 14 MPH (12 knots; 6.2 m/s)
Visibility: 6 miles ( 9 km)
Ceiling: 600 feet AGL
Clouds: overcast cloud deck at 600 feet AGL
Weather: no significant weather observed at this time

METAR text: UUEE 031230Z 08006MPS 9999 OVC008 13/13 Q1010 R06R/290051 NOSIG
Conditions at: UUEE (MOSCOW/SHEREMET', RU) observed 1230 UTC 03 June 2020
Temperature: 13.0°C (55°F)
Dewpoint: 13.0°C (55°F) [RH = 100%]
Pressure (altimeter): 29.82 inches Hg (1010.0 mb)
Winds: from the E (80 degrees) at 14 MPH (12 knots; 6.2 m/s)
Visibility: 6 or more miles (10+ km)
Ceiling: 800 feet AGL
Clouds: overcast cloud deck at 800 feet AGL
Weather: no significant weather observed at this time

METAR text: UUEE 031200Z 07005MPS 5000 -RA BR OVC004 13/12 Q1010 R06R/290051 NOSIG
Conditions at: UUEE (MOSCOW/SHEREMET', RU) observed 1200 UTC 03 June 2020
Temperature: 13.0°C (55°F)
Dewpoint: 12.0°C (54°F) [RH = 94%]
Pressure (altimeter): 29.82 inches Hg (1010.0 mb)
Winds: from the ENE (70 degrees) at 12 MPH (10 knots; 5.1 m/s)
Visibility: 3 miles ( 5 km)
Ceiling: 400 feet AGL
Clouds: overcast cloud deck at 400 feet AGL
Weather: -RA BR  (light rain, mist)

METAR text: UUEE 031130Z 07007MPS 9999 OVC006 13/12 Q1010 R06R/290051 NOSIG
Conditions at: UUEE (MOSCOW/SHEREMET', RU) observed 1130 UTC 03 June 2020
Temperature: 13.0°C (55°F)
Dewpoint: 12.0°C (54°F) [RH = 94%]
Pressure (altimeter): 29.82 inches Hg (1010.0 mb)
Winds: from the ENE (70 degrees) at 16 MPH (14 knots; 7.2 m/s)
Visibility: 6 or more miles (10+ km)
Ceiling: 600 feet AGL
Clouds: overcast cloud deck at 600 feet AGL
Weather: no significant weather observed at this time

METAR text: UUEE 031100Z 08006MPS 9999 OVC007 13/13 Q1010 R06R/290051 NOSIG
Conditions at: UUEE (MOSCOW/SHEREMET', RU) observed 1100 UTC 03 June 2020
Temperature: 13.0°C (55°F)
Dewpoint: 13.0°C (55°F) [RH = 100%]
Pressure (altimeter): 29.82 inches Hg (1010.0 mb)
Winds: from the E (80 degrees) at 14 MPH (12 knots; 6.2 m/s)
Visibility: 6 or more miles (10+ km)
Ceiling: 700 feet AGL
Clouds: overcast cloud deck at 700 feet AGL
Weather: no significant weather observed at this time

METAR text: UUEE 031030Z 08006MPS 9000 OVC007 13/12 Q1010 R06R/290051 NOSIG
Conditions at: UUEE (MOSCOW/SHEREMET', RU) observed 1030 UTC 03 June 2020
Temperature: 13.0°C (55°F)
Dewpoint: 12.0°C (54°F) [RH = 94%]
Pressure (altimeter): 29.82 inches Hg (1010.0 mb)
Winds: from the E (80 degrees) at 14 MPH (12 knots; 6.2 m/s)
Visibility: 6 miles ( 9 km)
Ceiling: 700 feet AGL
Clouds: overcast cloud deck at 700 feet AGL
Weather: no significant weather observed at this time

METAR text: UUEE 031000Z 07005MPS 9000 OVC005 13/12 Q1011 R06R/290051 NOSIG
Conditions at: UUEE (MOSCOW/SHEREMET', RU) observed 1000 UTC 03 June 2020
Temperature: 13.0°C (55°F)
Dewpoint: 12.0°C (54°F) [RH = 94%]
Pressure (altimeter): 29.85 inches Hg (1011.0 mb)
Winds: from the ENE (70 degrees) at 12 MPH (10 knots; 5.1 m/s)
Visibility: 6 miles ( 9 km)
Ceiling: 500 feet AGL
Clouds: overcast cloud deck at 500 feet AGL
Weather: no significant weather observed at this time

METAR text: UUEE 030930Z 09006MPS 5000 -DZ OVC005 12/12 Q1011 R06R/290051 NOSIG
Conditions at: UUEE (MOSCOW/SHEREMET', RU) observed 0930 UTC 03 June 2020
Temperature: 12.0°C (54°F)
Dewpoint: 12.0°C (54°F) [RH = 100%]
Pressure (altimeter): 29.85 inches Hg (1011.0 mb)
Winds: from the E (90 degrees) at 14 MPH (12 knots; 6.2 m/s)
Visibility: 3 miles ( 5 km)
Ceiling: 500 feet AGL
Clouds: overcast cloud deck at 500 feet AGL
Weather: -DZ  (light drizzle)

METAR text: UUEE 030900Z 08006MPS 9999 OVC005 12/11 Q1011 R06R/290051 NOSIG
Conditions at: UUEE (MOSCOW/SHEREMET', RU) observed 0900 UTC 03 June 2020
Temperature: 12.0°C (54°F)
Dewpoint: 11.0°C (52°F) [RH = 94%]
Pressure (altimeter): 29.85 inches Hg (1011.0 mb)
Winds: from the E (80 degrees) at 14 MPH (12 knots; 6.2 m/s)
Visibility: 6 or more miles (10+ km)
Ceiling: 500 feet AGL
Clouds: overcast cloud deck at 500 feet AGL
Weather: no significant weather observed at this time

METAR text: UUEE 030830Z 09006MPS 9999 OVC004 11/11 Q1011 R06R/290051 NOSIG
Conditions at: UUEE (MOSCOW/SHEREMET', RU) observed 0830 UTC 03 June 2020
Temperature: 11.0°C (52°F)
Dewpoint: 11.0°C (52°F) [RH = 100%]
Pressure (altimeter): 29.85 inches Hg (1011.0 mb)
Winds: from the E (90 degrees) at 14 MPH (12 knots; 6.2 m/s)
Visibility: 6 or more miles (10+ km)
Ceiling: 400 feet AGL
Clouds: overcast cloud deck at 400 feet AGL
Weather: no significant weather observed at this time

METAR text: UUEE 030800Z 08006MPS 9000 -RA OVC004 11/11 Q1011 R06R/290051 NOSIG
Conditions at: UUEE (MOSCOW/SHEREMET', RU) observed 0800 UTC 03 June 2020
Temperature: 11.0°C (52°F)
Dewpoint: 11.0°C (52°F) [RH = 100%]
Pressure (altimeter): 29.85 inches Hg (1011.0 mb)
Winds: from the E (80 degrees) at 14 MPH (12 knots; 6.2 m/s)
Visibility: 6 miles ( 9 km)
Ceiling: 400 feet AGL
Clouds: overcast cloud deck at 400 feet AGL
Weather: -RA  (light rain)

METAR text: UUEE 030730Z 07005MPS 8000 -RA OVC004 11/11 Q1011 R06R/290051 NOSIG
Conditions at: UUEE (MOSCOW/SHEREMET', RU) observed 0730 UTC 03 June 2020
Temperature: 11.0°C (52°F)
Dewpoint: 11.0°C (52°F) [RH = 100%]
Pressure (altimeter): 29.85 inches Hg (1011.0 mb)
Winds: from the ENE (70 degrees) at 12 MPH (10 knots; 5.1 m/s)
Visibility: 5 miles ( 8 km)
Ceiling: 400 feet AGL
Clouds: overcast cloud deck at 400 feet AGL
Weather: -RA  (light rain)

METAR text: UUEE 030700Z 07006MPS 9000 -SHRA SCT004 BKN037CB 11/11 Q1011 R06R/290051 NOSIG
Conditions at: UUEE (MOSCOW/SHEREMET', RU) observed 0700 UTC 03 June 2020
Temperature: 11.0°C (52°F)
Dewpoint: 11.0°C (52°F) [RH = 100%]
Pressure (altimeter): 29.85 inches Hg (1011.0 mb)
Winds: from the ENE (70 degrees) at 14 MPH (12 knots; 6.2 m/s)
Visibility: 6 miles ( 9 km)
Ceiling: 3700 feet AGL
Clouds: scattered clouds at 400 feet AGL
broken clouds at 3700 feet AGL
Weather: -SHRA  (light rain showers)

METAR text: UUEE 030630Z 07005MPS 9000 -SHRA SCT005 BKN037CB 11/10 Q1011 R06R/290051 NOSIG
Conditions at: UUEE (MOSCOW/SHEREMET', RU) observed 0630 UTC 03 June 2020
Temperature: 11.0°C (52°F)
Dewpoint: 10.0°C (50°F) [RH = 94%]
Pressure (altimeter): 29.85 inches Hg (1011.0 mb)
Winds: from the ENE (70 degrees) at 12 MPH (10 knots; 5.1 m/s)
Visibility: 6 miles ( 9 km)
Ceiling: 3700 feet AGL
Clouds: scattered clouds at 500 feet AGL
broken clouds at 3700 feet AGL
Weather: -SHRA  (light rain showers)

METAR text: UUEE 030600Z 07004MPS 040V100 9000 -SHRA SCT005 BKN039CB 10/10 Q1011 R06R/290051 NOSIG
Conditions at: UUEE (MOSCOW/SHEREMET', RU) observed 0600 UTC 03 June 2020
Temperature: 10.0°C (50°F)
Dewpoint: 10.0°C (50°F) [RH = 100%]
Pressure (altimeter): 29.85 inches Hg (1011.0 mb)
Winds: from the ENE (70 degrees) at 9 MPH (8 knots; 4.1 m/s)
Visibility: 6 miles ( 9 km)
Ceiling: 3900 feet AGL
Clouds: scattered clouds at 500 feet AGL
broken clouds at 3900 feet AGL
Weather: -SHRA  (light rain showers)

METAR text: UUEE 030530Z 06005MPS 6000 -SHRA SCT005 BKN039CB 10/10 Q1011 R06R/290051 NOSIG
Conditions at: UUEE (MOSCOW/SHEREMET', RU) observed 0530 UTC 03 June 2020
Temperature: 10.0°C (50°F)
Dewpoint: 10.0°C (50°F) [RH = 100%]
Pressure (altimeter): 29.85 inches Hg (1011.0 mb)
Winds: from the ENE (60 degrees) at 12 MPH (10 knots; 5.1 m/s)
Visibility: 4 miles ( 6 km)
Ceiling: 3900 feet AGL
Clouds: scattered clouds at 500 feet AGL
broken clouds at 3900 feet AGL
Weather: -SHRA  (light rain showers)

METAR text: UUEE 030500Z 07005MPS 9999 -SHRA SCT004 BKN016CB 10/10 Q1011 R06R/290051 NOSIG
Conditions at: UUEE (MOSCOW/SHEREMET', RU) observed 0500 UTC 03 June 2020
Temperature: 10.0°C (50°F)
Dewpoint: 10.0°C (50°F) [RH = 100%]
Pressure (altimeter): 29.85 inches Hg (1011.0 mb)
Winds: from the ENE (70 degrees) at 12 MPH (10 knots; 5.1 m/s)
Visibility: 6 or more miles (10+ km)
Ceiling: 1600 feet AGL
Clouds: scattered clouds at 400 feet AGL
broken clouds at 1600 feet AGL
Weather: -SHRA  (light rain showers)

METAR text: UUEE 030430Z 07006MPS 9000 -RA OVC005 10/10 Q1011 R06R/290051 NOSIG
Conditions at: UUEE (MOSCOW/SHEREMET', RU) observed 0430 UTC 03 June 2020
Temperature: 10.0°C (50°F)
Dewpoint: 10.0°C (50°F) [RH = 100%]
Pressure (altimeter): 29.85 inches Hg (1011.0 mb)
Winds: from the ENE (70 degrees) at 14 MPH (12 knots; 6.2 m/s)
Visibility: 6 miles ( 9 km)
Ceiling: 500 feet AGL
Clouds: overcast cloud deck at 500 feet AGL
Weather: -RA  (light rain)

METAR text: UUEE 030400Z 07005MPS 9000 -RA OVC004 10/10 Q1011 R06R/290051 NOSIG
Conditions at: UUEE (MOSCOW/SHEREMET', RU) observed 0400 UTC 03 June 2020
Temperature: 10.0°C (50°F)
Dewpoint: 10.0°C (50°F) [RH = 100%]
Pressure (altimeter): 29.85 inches Hg (1011.0 mb)
Winds: from the ENE (70 degrees) at 12 MPH (10 knots; 5.1 m/s)
Visibility: 6 miles ( 9 km)
Ceiling: 400 feet AGL
Clouds: overcast cloud deck at 400 feet AGL
Weather: -RA  (light rain)

METAR text: UUEE 030330Z 07005MPS 9000 -RA OVC004 10/10 Q1011 R06R/290051 NOSIG
Conditions at: UUEE (MOSCOW/SHEREMET', RU) observed 0330 UTC 03 June 2020
Temperature: 10.0°C (50°F)
Dewpoint: 10.0°C (50°F) [RH = 100%]
Pressure (altimeter): 29.85 inches Hg (1011.0 mb)
Winds: from the ENE (70 degrees) at 12 MPH (10 knots; 5.1 m/s)
Visibility: 6 miles ( 9 km)
Ceiling: 400 feet AGL
Clouds: overcast cloud deck at 400 feet AGL
Weather: -RA  (light rain)

METAR text: UUEE 030300Z 07005MPS 9000 -RA OVC004 10/10 Q1011 R06R/290051 NOSIG
Conditions at: UUEE (MOSCOW/SHEREMET', RU) observed 0300 UTC 03 June 2020
Temperature: 10.0°C (50°F)
Dewpoint: 10.0°C (50°F) [RH = 100%]
Pressure (altimeter): 29.85 inches Hg (1011.0 mb)
Winds: from the ENE (70 degrees) at 12 MPH (10 knots; 5.1 m/s)
Visibility: 6 miles ( 9 km)
Ceiling: 400 feet AGL
Clouds: overcast cloud deck at 400 feet AGL
Weather: -RA  (light rain)

METAR text: UUEE 030230Z 07005MPS 9999 OVC003 10/10 Q1012 R06R/290051 NOSIG
Conditions at: UUEE (MOSCOW/SHEREMET', RU) observed 0230 UTC 03 June 2020
Temperature: 10.0°C (50°F)
Dewpoint: 10.0°C (50°F) [RH = 100%]
Pressure (altimeter): 29.88 inches Hg (1012.0 mb)
Winds: from the ENE (70 degrees) at 12 MPH (10 knots; 5.1 m/s)
Visibility: 6 or more miles (10+ km)
Ceiling: 300 feet AGL
Clouds: overcast cloud deck at 300 feet AGL
Weather: no significant weather observed at this time

METAR text: UUEE 030200Z 07005MPS 9999 -DZ OVC003 10/10 Q1012 R06R/290051 NOSIG
Conditions at: UUEE (MOSCOW/SHEREMET', RU) observed 0200 UTC 03 June 2020
Temperature: 10.0°C (50°F)
Dewpoint: 10.0°C (50°F) [RH = 100%]
Pressure (altimeter): 29.88 inches Hg (1012.0 mb)
Winds: from the ENE (70 degrees) at 12 MPH (10 knots; 5.1 m/s)
Visibility: 6 or more miles (10+ km)
Ceiling: 300 feet AGL
Clouds: overcast cloud deck at 300 feet AGL
Weather: -DZ  (light drizzle)

METAR text: UUEE 030130Z 07005MPS 5000 -DZ BR OVC002 10/09 Q1012 R06R/290051 NOSIG
Conditions at: UUEE (MOSCOW/SHEREMET', RU) observed 0130 UTC 03 June 2020
Temperature: 10.0°C (50°F)
Dewpoint: 9.0°C (48°F) [RH = 93%]
Pressure (altimeter): 29.88 inches Hg (1012.0 mb)
Winds: from the ENE (70 degrees) at 12 MPH (10 knots; 5.1 m/s)
Visibility: 3 miles ( 5 km)
Ceiling: 200 feet AGL
Clouds: overcast cloud deck at 200 feet AGL
Weather: -DZ BR  (light drizzle, mist)

METAR text: UUEE 030100Z 08004MPS 3800 -DZ BR OVC002 09/09 Q1012 R06R/290051 NOSIG
Conditions at: UUEE (MOSCOW/SHEREMET', RU) observed 0100 UTC 03 June 2020
Temperature: 9.0°C (48°F)
Dewpoint: 9.0°C (48°F) [RH = 100%]
Pressure (altimeter): 29.88 inches Hg (1012.0 mb)
Winds: from the E (80 degrees) at 9 MPH (8 knots; 4.1 m/s)
Visibility: 2.36 miles (3.80 km)
Ceiling: 200 feet AGL
Clouds: overcast cloud deck at 200 feet AGL
Weather: -DZ BR  (light drizzle, mist)

METAR text: UUEE 030030Z 07005MPS 4000 -DZ BR OVC003 09/09 Q1012 REDZ R06R/290051 NOSIG
Conditions at: UUEE (MOSCOW/SHEREMET', RU) observed 0030 UTC 03 June 2020
Temperature: 9.0°C (48°F)
Dewpoint: 9.0°C (48°F) [RH = 100%]
Pressure (altimeter): 29.88 inches Hg (1012.0 mb)
Winds: from the ENE (70 degrees) at 12 MPH (10 knots; 5.1 m/s)
Visibility: 2.49 miles (4.01 km)
Ceiling: 300 feet AGL
Clouds: overcast cloud deck at 300 feet AGL
Weather: -DZ BR  (light drizzle, mist)

METAR text: UUEE 030000Z 07005MPS 4700 -DZ BR OVC003 09/09 Q1012 R06R/290051 NOSIG
Conditions at: UUEE (MOSCOW/SHEREMET', RU) observed 0000 UTC 03 June 2020
Temperature: 9.0°C (48°F)
Dewpoint: 9.0°C (48°F) [RH = 100%]
Pressure (altimeter): 29.88 inches Hg (1012.0 mb)
Winds: from the ENE (70 degrees) at 12 MPH (10 knots; 5.1 m/s)
Visibility: 2.92 miles (4.70 km)
Ceiling: 300 feet AGL
Clouds: overcast cloud deck at 300 feet AGL
Weather: -DZ BR  (light drizzle, mist)

METAR text: UUEE 022330Z 07005MPS 6000 OVC004 09/09 Q1012 R06R/190057 NOSIG
Conditions at: UUEE (MOSCOW/SHEREMET', RU) observed 2330 UTC 02 June 2020
Temperature: 9.0°C (48°F)
Dewpoint: 9.0°C (48°F) [RH = 100%]
Pressure (altimeter): 29.88 inches Hg (1012.0 mb)
Winds: from the ENE (70 degrees) at 12 MPH (10 knots; 5.1 m/s)
Visibility: 4 miles ( 6 km)
Ceiling: 400 feet AGL
Clouds: overcast cloud deck at 400 feet AGL
Weather: no significant weather observed at this time

METAR text: UUEE 022300Z 07005MPS 9999 OVC005 09/09 Q1012 R06R/190057 NOSIG
Conditions at: UUEE (MOSCOW/SHEREMET', RU) observed 2300 UTC 02 June 2020
Temperature: 9.0°C (48°F)
Dewpoint: 9.0°C (48°F) [RH = 100%]
Pressure (altimeter): 29.88 inches Hg (1012.0 mb)
Winds: from the ENE (70 degrees) at 12 MPH (10 knots; 5.1 m/s)
Visibility: 6 or more miles (10+ km)
Ceiling: 500 feet AGL
Clouds: overcast cloud deck at 500 feet AGL
Weather: no significant weather observed at this time

METAR text: UUEE 022230Z 07005MPS 9999 OVC006 09/09 Q1012 R06R/190057 NOSIG
Conditions at: UUEE (MOSCOW/SHEREMET', RU) observed 2230 UTC 02 June 2020
Temperature: 9.0°C (48°F)
Dewpoint: 9.0°C (48°F) [RH = 100%]
Pressure (altimeter): 29.88 inches Hg (1012.0 mb)
Winds: from the ENE (70 degrees) at 12 MPH (10 knots; 5.1 m/s)
Visibility: 6 or more miles (10+ km)
Ceiling: 600 feet AGL
Clouds: overcast cloud deck at 600 feet AGL
Weather: no significant weather observed at this time

METAR text: UUEE 022200Z 06005MPS 9999 OVC006 09/09 Q1013 R06R/190057 NOSIG
Conditions at: UUEE (MOSCOW/SHEREMET', RU) observed 2200 UTC 02 June 2020
Temperature: 9.0°C (48°F)
Dewpoint: 9.0°C (48°F) [RH = 100%]
Pressure (altimeter): 29.91 inches Hg (1013.0 mb)
Winds: from the ENE (60 degrees) at 12 MPH (10 knots; 5.1 m/s)
Visibility: 6 or more miles (10+ km)
Ceiling: 600 feet AGL
Clouds: overcast cloud deck at 600 feet AGL
Weather: no significant weather observed at this time

METAR text: UUEE 022130Z 06005MPS 9999 OVC006 09/09 Q1013 R06R/190057 NOSIG
Conditions at: UUEE (MOSCOW/SHEREMET', RU) observed 2130 UTC 02 June 2020
Temperature: 9.0°C (48°F)
Dewpoint: 9.0°C (48°F) [RH = 100%]
Pressure (altimeter): 29.91 inches Hg (1013.0 mb)
Winds: from the ENE (60 degrees) at 12 MPH (10 knots; 5.1 m/s)
Visibility: 6 or more miles (10+ km)
Ceiling: 600 feet AGL
Clouds: overcast cloud deck at 600 feet AGL
Weather: no significant weather observed at this time

METAR text: UUEE 022100Z 08005MPS 6000 OVC006 09/08 Q1013 R06R/190057 NOSIG
Conditions at: UUEE (MOSCOW/SHEREMET', RU) observed 2100 UTC 02 June 2020
Temperature: 9.0°C (48°F)
Dewpoint: 8.0°C (46°F) [RH = 93%]
Pressure (altimeter): 29.91 inches Hg (1013.0 mb)
Winds: from the E (80 degrees) at 12 MPH (10 knots; 5.1 m/s)
Visibility: 4 miles ( 6 km)
Ceiling: 600 feet AGL
Clouds: overcast cloud deck at 600 feet AGL
Weather: no significant weather observed at this time

METAR text: UUEE 022030Z 08005MPS 9999 OVC008 09/08 Q1013 R06R/190057 NOSIG
Conditions at: UUEE (MOSCOW/SHEREMET', RU) observed 2030 UTC 02 June 2020
Temperature: 9.0°C (48°F)
Dewpoint: 8.0°C (46°F) [RH = 93%]
Pressure (altimeter): 29.91 inches Hg (1013.0 mb)
Winds: from the E (80 degrees) at 12 MPH (10 knots; 5.1 m/s)
Visibility: 6 or more miles (10+ km)
Ceiling: 800 feet AGL
Clouds: overcast cloud deck at 800 feet AGL
Weather: no significant weather observed at this time

METAR text: UUEE 022000Z 08006MPS 9999 OVC011 10/08 Q1013 R06R/190057 NOSIG
Conditions at: UUEE (MOSCOW/SHEREMET', RU) observed 2000 UTC 02 June 2020
Temperature: 10.0°C (50°F)
Dewpoint: 8.0°C (46°F) [RH = 87%]
Pressure (altimeter): 29.91 inches Hg (1013.0 mb)
Winds: from the E (80 degrees) at 14 MPH (12 knots; 6.2 m/s)
Visibility: 6 or more miles (10+ km)
Ceiling: 1100 feet AGL
Clouds: overcast cloud deck at 1100 feet AGL
Weather: no significant weather observed at this time

METAR text: UUEE 021930Z 08007MPS 9999 OVC012 10/08 Q1013 R06R/190057 NOSIG
Conditions at: UUEE (MOSCOW/SHEREMET', RU) observed 1930 UTC 02 June 2020
Temperature: 10.0°C (50°F)
Dewpoint: 8.0°C (46°F) [RH = 87%]
Pressure (altimeter): 29.91 inches Hg (1013.0 mb)
Winds: from the E (80 degrees) at 16 MPH (14 knots; 7.2 m/s)
Visibility: 6 or more miles (10+ km)
Ceiling: 1200 feet AGL
Clouds: overcast cloud deck at 1200 feet AGL
Weather: no significant weather observed at this time

METAR text: UUEE 021900Z 08006MPS 9999 OVC014 10/07 Q1014 R06R/190057 NOSIG
Conditions at: UUEE (MOSCOW/SHEREMET', RU) observed 1900 UTC 02 June 2020
Temperature: 10.0°C (50°F)
Dewpoint: 7.0°C (45°F) [RH = 82%]
Pressure (altimeter): 29.94 inches Hg (1014.0 mb)
Winds: from the E (80 degrees) at 14 MPH (12 knots; 6.2 m/s)
Visibility: 6 or more miles (10+ km)
Ceiling: 1400 feet AGL
Clouds: overcast cloud deck at 1400 feet AGL
Weather: no significant weather observed at this time

METAR text: UUEE 021830Z 08007G12MPS 9999 OVC016 10/07 Q1014 R06R/190057 NOSIG
Conditions at: UUEE (MOSCOW/SHEREMET', RU) observed 1830 UTC 02 June 2020
Temperature: 10.0°C (50°F)
Dewpoint: 7.0°C (45°F) [RH = 82%]
Pressure (altimeter): 29.94 inches Hg (1014.0 mb)
Winds: from the E (80 degrees) at 16 MPH (14 knots; 7.2 m/s)
gusting to 26 MPH (23 knots; 11.8 m/s)
Visibility: 6 or more miles (10+ km)
Ceiling: 1600 feet AGL
Clouds: overcast cloud deck at 1600 feet AGL
Weather: no significant weather observed at this time

METAR text: UUEE 021800Z 07007MPS 9999 OVC017 10/07 Q1014 R06R/190057 NOSIG
Conditions at: UUEE (MOSCOW/SHEREMET', RU) observed 1800 UTC 02 June 2020
Temperature: 10.0°C (50°F)
Dewpoint: 7.0°C (45°F) [RH = 82%]
Pressure (altimeter): 29.94 inches Hg (1014.0 mb)
Winds: from the ENE (70 degrees) at 16 MPH (14 knots; 7.2 m/s)
Visibility: 6 or more miles (10+ km)
Ceiling: 1700 feet AGL
Clouds: overcast cloud deck at 1700 feet AGL
Weather: no significant weather observed at this time

METAR text: UUEE 021730Z 07008MPS 9999 OVC019 10/07 Q1014 R06R/190057 NOSIG
Conditions at: UUEE (MOSCOW/SHEREMET', RU) observed 1730 UTC 02 June 2020
Temperature: 10.0°C (50°F)
Dewpoint: 7.0°C (45°F) [RH = 82%]
Pressure (altimeter): 29.94 inches Hg (1014.0 mb)
Winds: from the ENE (70 degrees) at 18 MPH (16 knots; 8.2 m/s)
Visibility: 6 or more miles (10+ km)
Ceiling: 1900 feet AGL
Clouds: overcast cloud deck at 1900 feet AGL
Weather: no significant weather observed at this time

METAR text: UUEE 021700Z 07008MPS 9999 OVC019 10/07 Q1014 R06R/190057 NOSIG
Conditions at: UUEE (MOSCOW/SHEREMET', RU) observed 1700 UTC 02 June 2020
Temperature: 10.0°C (50°F)
Dewpoint: 7.0°C (45°F) [RH = 82%]
Pressure (altimeter): 29.94 inches Hg (1014.0 mb)
Winds: from the ENE (70 degrees) at 18 MPH (16 knots; 8.2 m/s)
Visibility: 6 or more miles (10+ km)
Ceiling: 1900 feet AGL
Clouds: overcast cloud deck at 1900 feet AGL
Weather: no significant weather observed at this time

METAR text: UUEE 021630Z 08007MPS 9999 OVC018 10/07 Q1014 R06R/190057 NOSIG
Conditions at: UUEE (MOSCOW/SHEREMET', RU) observed 1630 UTC 02 June 2020
Temperature: 10.0°C (50°F)
Dewpoint: 7.0°C (45°F) [RH = 82%]
Pressure (altimeter): 29.94 inches Hg (1014.0 mb)
Winds: from the E (80 degrees) at 16 MPH (14 knots; 7.2 m/s)
Visibility: 6 or more miles (10+ km)
Ceiling: 1800 feet AGL
Clouds: overcast cloud deck at 1800 feet AGL
Weather: no significant weather observed at this time

METAR text: UUEE 021600Z 09008MPS 9999 OVC019 10/07 Q1014 R06R/290051 NOSIG
Conditions at: UUEE (MOSCOW/SHEREMET', RU) observed 1600 UTC 02 June 2020
Temperature: 10.0°C (50°F)
Dewpoint: 7.0°C (45°F) [RH = 82%]
Pressure (altimeter): 29.94 inches Hg (1014.0 mb)
Winds: from the E (90 degrees) at 18 MPH (16 knots; 8.2 m/s)
Visibility: 6 or more miles (10+ km)
Ceiling: 1900 feet AGL
Clouds: overcast cloud deck at 1900 feet AGL
Weather: no significant weather observed at this time

METAR text: UUEE 021530Z 08007MPS 9999 OVC019 10/08 Q1014 R06R/290051 NOSIG
Conditions at: UUEE (MOSCOW/SHEREMET', RU) observed 1530 UTC 02 June 2020
Temperature: 10.0°C (50°F)
Dewpoint: 8.0°C (46°F) [RH = 87%]
Pressure (altimeter): 29.94 inches Hg (1014.0 mb)
Winds: from the E (80 degrees) at 16 MPH (14 knots; 7.2 m/s)
Visibility: 6 or more miles (10+ km)
Ceiling: 1900 feet AGL
Clouds: overcast cloud deck at 1900 feet AGL
Weather: no significant weather observed at this time

METAR text: UUEE 021500Z 07006MPS 9999 OVC020 10/07 Q1014 R06R/290051 NOSIG
Conditions at: UUEE (MOSCOW/SHEREMET', RU) observed 1500 UTC 02 June 2020
Temperature: 10.0°C (50°F)
Dewpoint: 7.0°C (45°F) [RH = 82%]
Pressure (altimeter): 29.94 inches Hg (1014.0 mb)
Winds: from the ENE (70 degrees) at 14 MPH (12 knots; 6.2 m/s)
Visibility: 6 or more miles (10+ km)
Ceiling: 2000 feet AGL
Clouds: overcast cloud deck at 2000 feet AGL
Weather: no significant weather observed at this time

METAR text: UUEE 021430Z 07007MPS 9999 OVC020 10/07 Q1014 R06R/290051 NOSIG
Conditions at: UUEE (MOSCOW/SHEREMET', RU) observed 1430 UTC 02 June 2020
Temperature: 10.0°C (50°F)
Dewpoint: 7.0°C (45°F) [RH = 82%]
Pressure (altimeter): 29.94 inches Hg (1014.0 mb)
Winds: from the ENE (70 degrees) at 16 MPH (14 knots; 7.2 m/s)
Visibility: 6 or more miles (10+ km)
Ceiling: 2000 feet AGL
Clouds: overcast cloud deck at 2000 feet AGL
Weather: no significant weather observed at this time

METAR text: UUEE 021400Z 08007MPS 9999 OVC019 10/07 Q1015 R06R/290051 NOSIG
Conditions at: UUEE (MOSCOW/SHEREMET', RU) observed 1400 UTC 02 June 2020
Temperature: 10.0°C (50°F)
Dewpoint: 7.0°C (45°F) [RH = 82%]
Pressure (altimeter): 29.97 inches Hg (1015.0 mb)
Winds: from the E (80 degrees) at 16 MPH (14 knots; 7.2 m/s)
Visibility: 6 or more miles (10+ km)
Ceiling: 1900 feet AGL
Clouds: overcast cloud deck at 1900 feet AGL
Weather: no significant weather observed at this time

METAR text: UUEE 021330Z 07008MPS 9999 OVC019 10/07 Q1015 R06R/290051 NOSIG
Conditions at: UUEE (MOSCOW/SHEREMET', RU) observed 1330 UTC 02 June 2020
Temperature: 10.0°C (50°F)
Dewpoint: 7.0°C (45°F) [RH = 82%]
Pressure (altimeter): 29.97 inches Hg (1015.0 mb)
Winds: from the ENE (70 degrees) at 18 MPH (16 knots; 8.2 m/s)
Visibility: 6 or more miles (10+ km)
Ceiling: 1900 feet AGL
Clouds: overcast cloud deck at 1900 feet AGL
Weather: no significant weather observed at this time

METAR text: UUEE 021300Z 07007MPS 9999 OVC017 10/08 Q1015 R06R/290051 NOSIG
Conditions at: UUEE (MOSCOW/SHEREMET', RU) observed 1300 UTC 02 June 2020
Temperature: 10.0°C (50°F)
Dewpoint: 8.0°C (46°F) [RH = 87%]
Pressure (altimeter): 29.97 inches Hg (1015.0 mb)
Winds: from the ENE (70 degrees) at 16 MPH (14 knots; 7.2 m/s)
Visibility: 6 or more miles (10+ km)
Ceiling: 1700 feet AGL
Clouds: overcast cloud deck at 1700 feet AGL
Weather: no significant weather observed at this time

METAR text: UUEE 021230Z 07007MPS 9999 OVC014 10/08 Q1015 R06R/290051 NOSIG
Conditions at: UUEE (MOSCOW/SHEREMET', RU) observed 1230 UTC 02 June 2020
Temperature: 10.0°C (50°F)
Dewpoint: 8.0°C (46°F) [RH = 87%]
Pressure (altimeter): 29.97 inches Hg (1015.0 mb)
Winds: from the ENE (70 degrees) at 16 MPH (14 knots; 7.2 m/s)
Visibility: 6 or more miles (10+ km)
Ceiling: 1400 feet AGL
Clouds: overcast cloud deck at 1400 feet AGL
Weather: no significant weather observed at this time

METAR text: UUEE 021200Z 06008MPS 9999 OVC014 09/08 Q1015 R06R/290051 NOSIG
Conditions at: UUEE (MOSCOW/SHEREMET', RU) observed 1200 UTC 02 June 2020
Temperature: 9.0°C (48°F)
Dewpoint: 8.0°C (46°F) [RH = 93%]
Pressure (altimeter): 29.97 inches Hg (1015.0 mb)
Winds: from the ENE (60 degrees) at 18 MPH (16 knots; 8.2 m/s)
Visibility: 6 or more miles (10+ km)
Ceiling: 1400 feet AGL
Clouds: overcast cloud deck at 1400 feet AGL
Weather: no significant weather observed at this time

METAR text: UUEE 021130Z 07008MPS 6000 -RA OVC013 09/08 Q1015 R06R/290051 NOSIG
Conditions at: UUEE (MOSCOW/SHEREMET', RU) observed 1130 UTC 02 June 2020
Temperature: 9.0°C (48°F)
Dewpoint: 8.0°C (46°F) [RH = 93%]
Pressure (altimeter): 29.97 inches Hg (1015.0 mb)
Winds: from the ENE (70 degrees) at 18 MPH (16 knots; 8.2 m/s)
Visibility: 4 miles ( 6 km)
Ceiling: 1300 feet AGL
Clouds: overcast cloud deck at 1300 feet AGL
Weather: -RA  (light rain)

METAR text: UUEE 021100Z 07008MPS 9999 OVC013 09/08 Q1015 R06R/290051 NOSIG
Conditions at: UUEE (MOSCOW/SHEREMET', RU) observed 1100 UTC 02 June 2020
Temperature: 9.0°C (48°F)
Dewpoint: 8.0°C (46°F) [RH = 93%]
Pressure (altimeter): 29.97 inches Hg (1015.0 mb)
Winds: from the ENE (70 degrees) at 18 MPH (16 knots; 8.2 m/s)
Visibility: 6 or more miles (10+ km)
Ceiling: 1300 feet AGL
Clouds: overcast cloud deck at 1300 feet AGL
Weather: no significant weather observed at this time

METAR text: UUEE 021030Z 07009MPS 9999 BKN016 10/07 Q1015 R06R/290051 NOSIG
Conditions at: UUEE (MOSCOW/SHEREMET', RU) observed 1030 UTC 02 June 2020
Temperature: 10.0°C (50°F)
Dewpoint: 7.0°C (45°F) [RH = 82%]
Pressure (altimeter): 29.97 inches Hg (1015.0 mb)
Winds: from the ENE (70 degrees) at 20 MPH (17 knots; 8.7 m/s)
Visibility: 6 or more miles (10+ km)
Ceiling: 1600 feet AGL
Clouds: broken clouds at 1600 feet AGL
Weather: no significant weather observed at this time

METAR text: UUEE 021000Z 07009MPS 9999 -RA BKN018 10/07 Q1015 R06R/290051 NOSIG
Conditions at: UUEE (MOSCOW/SHEREMET', RU) observed 1000 UTC 02 June 2020
Temperature: 10.0°C (50°F)
Dewpoint: 7.0°C (45°F) [RH = 82%]
Pressure (altimeter): 29.97 inches Hg (1015.0 mb)
Winds: from the ENE (70 degrees) at 20 MPH (17 knots; 8.7 m/s)
Visibility: 6 or more miles (10+ km)
Ceiling: 1800 feet AGL
Clouds: broken clouds at 1800 feet AGL
Weather: -RA  (light rain)

METAR text: UUEE 020930Z 07008MPS 9999 -RA BKN019 10/07 Q1015 R06R/290051 NOSIG
Conditions at: UUEE (MOSCOW/SHEREMET', RU) observed 0930 UTC 02 June 2020
Temperature: 10.0°C (50°F)
Dewpoint: 7.0°C (45°F) [RH = 82%]
Pressure (altimeter): 29.97 inches Hg (1015.0 mb)
Winds: from the ENE (70 degrees) at 18 MPH (16 knots; 8.2 m/s)
Visibility: 6 or more miles (10+ km)
Ceiling: 1900 feet AGL
Clouds: broken clouds at 1900 feet AGL
Weather: -RA  (light rain)

METAR text: UUEE 020900Z 07009MPS 9999 -RA BKN025 10/07 Q1015 R06R/290051 NOSIG
Conditions at: UUEE (MOSCOW/SHEREMET', RU) observed 0900 UTC 02 June 2020
Temperature: 10.0°C (50°F)
Dewpoint: 7.0°C (45°F) [RH = 82%]
Pressure (altimeter): 29.97 inches Hg (1015.0 mb)
Winds: from the ENE (70 degrees) at 20 MPH (17 knots; 8.7 m/s)
Visibility: 6 or more miles (10+ km)
Ceiling: 2500 feet AGL
Clouds: broken clouds at 2500 feet AGL
Weather: -RA  (light rain)

METAR text: UUEE 020830Z 07009G14MPS 9999 -RA BKN032 10/07 Q1015 R06R/290051 NOSIG
Conditions at: UUEE (MOSCOW/SHEREMET', RU) observed 0830 UTC 02 June 2020
Temperature: 10.0°C (50°F)
Dewpoint: 7.0°C (45°F) [RH = 82%]
Pressure (altimeter): 29.97 inches Hg (1015.0 mb)
Winds: from the ENE (70 degrees) at 20 MPH (17 knots; 8.7 m/s)
gusting to 31 MPH (27 knots; 13.9 m/s)
Visibility: 6 or more miles (10+ km)
Ceiling: 3200 feet AGL
Clouds: broken clouds at 3200 feet AGL
Weather: -RA  (light rain)

METAR text: UUEE 020800Z 06010MPS 9999 -RA BKN045 10/07 Q1014 R06R/290051 NOSIG
Conditions at: UUEE (MOSCOW/SHEREMET', RU) observed 0800 UTC 02 June 2020
Temperature: 10.0°C (50°F)
Dewpoint: 7.0°C (45°F) [RH = 82%]
Pressure (altimeter): 29.94 inches Hg (1014.0 mb)
Winds: from the ENE (60 degrees) at 22 MPH (19 knots; 9.8 m/s)
Visibility: 6 or more miles (10+ km)
Ceiling: 4500 feet AGL
Clouds: broken clouds at 4500 feet AGL
Weather: -RA  (light rain)

METAR text: UUEE 020730Z 07010MPS 9999 -RA BKN043 10/07 Q1014 R06R/290051 NOSIG
Conditions at: UUEE (MOSCOW/SHEREMET', RU) observed 0730 UTC 02 June 2020
Temperature: 10.0°C (50°F)
Dewpoint: 7.0°C (45°F) [RH = 82%]
Pressure (altimeter): 29.94 inches Hg (1014.0 mb)
Winds: from the ENE (70 degrees) at 22 MPH (19 knots; 9.8 m/s)
Visibility: 6 or more miles (10+ km)
Ceiling: 4300 feet AGL
Clouds: broken clouds at 4300 feet AGL
Weather: -RA  (light rain)

METAR text: UUEE 020700Z 07008MPS 9999 -RA SCT045 10/07 Q1014 R06R/290051 NOSIG
Conditions at: UUEE (MOSCOW/SHEREMET', RU) observed 0700 UTC 02 June 2020
Temperature: 10.0°C (50°F)
Dewpoint: 7.0°C (45°F) [RH = 82%]
Pressure (altimeter): 29.94 inches Hg (1014.0 mb)
Winds: from the ENE (70 degrees) at 18 MPH (16 knots; 8.2 m/s)
Visibility: 6 or more miles (10+ km)
Ceiling: at least 12,000 feet AGL
Clouds: scattered clouds at 4500 feet AGL
Weather: -RA  (light rain)

METAR text: UUEE 020630Z 07008MPS 9999 -RA SCT044 10/07 Q1014 R06R/190057 NOSIG
Conditions at: UUEE (MOSCOW/SHEREMET', RU) observed 0630 UTC 02 June 2020
Temperature: 10.0°C (50°F)
Dewpoint: 7.0°C (45°F) [RH = 82%]
Pressure (altimeter): 29.94 inches Hg (1014.0 mb)
Winds: from the ENE (70 degrees) at 18 MPH (16 knots; 8.2 m/s)
Visibility: 6 or more miles (10+ km)
Ceiling: at least 12,000 feet AGL
Clouds: scattered clouds at 4400 feet AGL
Weather: -RA  (light rain)

METAR text: UUEE 020600Z 07009MPS 9999 -RA NSC 11/06 Q1014 R06R/190057 NOSIG
Conditions at: UUEE (MOSCOW/SHEREMET', RU) observed 0600 UTC 02 June 2020
Temperature: 11.0°C (52°F)
Dewpoint: 6.0°C (43°F) [RH = 71%]
Pressure (altimeter): 29.94 inches Hg (1014.0 mb)
Winds: from the ENE (70 degrees) at 20 MPH (17 knots; 8.7 m/s)
Visibility: 6 or more miles (10+ km)
Ceiling: at least 12,000 feet AGL
Clouds: sky clear below 12,000 feet AGL
Weather: -RA  (light rain)

METAR text: UUEE 020530Z 07009MPS 9999 -RA NSC 10/06 Q1014 R06R/CLRD62 NOSIG
Conditions at: UUEE (MOSCOW/SHEREMET', RU) observed 0530 UTC 02 June 2020
Temperature: 10.0°C (50°F)
Dewpoint: 6.0°C (43°F) [RH = 76%]
Pressure (altimeter): 29.94 inches Hg (1014.0 mb)
Winds: from the ENE (70 degrees) at 20 MPH (17 knots; 8.7 m/s)
Visibility: 6 or more miles (10+ km)
Ceiling: at least 12,000 feet AGL
Clouds: sky clear below 12,000 feet AGL
Weather: -RA  (light rain)

Forecast for: UUEE (MOSCOW/SHEREMET', RU)
Text: TAF UUEE 031650Z 0318/0418 07006MPS 6000 -RA OVC004 TX18/0412Z TN12/0321Z
Forecast period: 1800 UTC 03 June 2020 to 0300 UTC 04 June 2020
Forecast type: FROM: standard forecast or significant change
Winds: from the ENE (70 degrees) at 14 MPH (12 knots; 6.2 m/s)
Visibility: 4 miles (6 km)
Ceiling: 400 feet AGL
Clouds: overcast cloud deck at 400 feet AGL
Weather: -RA  (light rain)
Text: TEMPO 0318/0403 03010G16MPS 1200 TSRA BKN002 BKN012CB
Forecast period: 1800 UTC 03 June 2020 to 0300 UTC 04 June 2020
Forecast type: TEMPORARY: The following changes expected for less than half the time period
Winds: from the NNE (30 degrees) at 22 MPH (19 knots; 9.8 m/s)
gusting to 36 MPH (31 knots; 15.9 m/s)
Visibility: 0.75 miles (1.21 km)
Ceiling: 200 feet AGL
Clouds: broken clouds at 200 feet AGL
broken clouds at 1200 feet AGL
Weather: TSRA  (rain associated with thunderstorm(s))
Text: BECMG 0403/0405 19006MPS FEW005 BKN016
Forecast period: 0300 to 1800 UTC 04 June 2020
Forecast type: BECOMING: Conditions expected to become as follows by 0500 UTC 04 June 2020
Winds: from the S (190 degrees) at 14 MPH (12 knots; 6.2 m/s)
Visibility: 4 miles (6 km)
Ceiling: 1600 feet AGL
Clouds: few clouds at 500 feet AGL
broken clouds at 1600 feet AGL
Weather: -RA  (light rain)
Text: TEMPO 0411/0418 20009G16MPS -TSRA SCT005 BKN016CB
Forecast period: 1100 to 1800 UTC 04 June 2020
Forecast type: TEMPORARY: The following changes expected for less than half the time period
Winds: from the SSW (200 degrees) at 20 MPH (17 knots; 8.7 m/s)
gusting to 36 MPH (31 knots; 15.9 m/s)
Visibility: missing
Ceiling: 1600 feet AGL
Clouds: scattered clouds at 500 feet AGL
broken clouds at 1600 feet AGL
Weather: -TSRA  (light rain associated with thunderstorm(s))